Time;durP1;ratioP1;P1;durP2;ratioP2;P2;SDS_P1;SDS_P2;PMS_P1;PMS_P2;Temp;Humidity;BMP_temperature;BMP_pressure;BME280_temperature;BME280_humidity;BME280_pressure;Samples;Min_cycle;Max_cycle;Signal;HPM_P1;HPM_P2
2022/08/01 00:01:24;;;;;;;4.35;2.65;;;;;;;17.93;100.00;98925.22;5174142;27;20103;-49
2022/08/01 00:03:50;;;;;;;6.93;3.65;;;;;;;18.02;100.00;98935.78;5174278;27;20046;-53
2022/08/01 00:06:16;;;;;;;4.07;3.42;;;;;;;17.58;100.00;98926.50;5174035;27;20060;-50
2022/08/01 00:08:42;;;;;;;7.60;3.28;;;;;;;17.80;100.00;98915.94;5173962;27;20050;-53
2022/08/01 00:11:09;;;;;;;4.43;3.08;;;;;;;17.62;100.00;98910.59;5174215;27;20054;-49
2022/08/01 00:13:36;;;;;;;5.60;2.88;;;;;;;17.71;100.00;98905.31;5174234;27;20097;-52
2022/08/01 00:16:02;;;;;;;7.15;2.97;;;;;;;17.72;100.00;98897.78;5172894;27;20046;-50
2022/08/01 00:18:29;;;;;;;5.00;3.67;;;;;;;17.69;100.00;98906.94;5174130;27;20058;-50
2022/08/01 00:20:55;;;;;;;7.18;2.80;;;;;;;17.72;100.00;98900.56;5174485;27;20889;-49
2022/08/01 00:23:21;;;;;;;5.55;3.25;;;;;;;17.86;100.00;98912.25;5174002;27;20050;-52
2022/08/01 00:25:47;;;;;;;6.25;3.35;;;;;;;17.73;100.00;98927.09;5174326;27;20049;-50
2022/08/01 00:28:14;;;;;;;3.88;2.70;;;;;;;17.85;100.00;98935.63;5173656;27;20423;-52
2022/08/01 00:30:41;;;;;;;6.70;2.75;;;;;;;17.80;100.00;98944.44;5173998;27;20050;-49
2022/08/01 00:33:07;;;;;;;5.65;3.78;;;;;;;17.78;100.00;98938.50;5173572;27;20046;-52
2022/08/01 00:35:33;;;;;;;5.28;3.38;;;;;;;17.60;100.00;98944.28;5173773;27;20050;-51
2022/08/01 00:37:59;;;;;;;7.05;2.78;;;;;;;17.82;100.00;98950.31;5173808;27;20404;-50
2022/08/01 00:40:26;;;;;;;4.78;2.88;;;;;;;17.72;100.00;98951.25;5173840;27;20068;-49
2022/08/01 00:42:52;;;;;;;4.57;2.60;;;;;;;17.92;100.00;98939.50;5174018;27;20082;-50
2022/08/01 00:45:18;;;;;;;11.23;3.67;;;;;;;17.96;100.00;98956.88;5173783;27;20052;-49
2022/08/01 00:47:45;;;;;;;4.57;2.70;;;;;;;18.01;100.00;98964.72;5173688;27;20137;-52
2022/08/01 00:50:12;;;;;;;4.88;2.67;;;;;;;17.95;100.00;98985.81;5173268;27;20101;-52
2022/08/01 00:52:40;;;;;;;4.43;3.28;;;;;;;18.12;100.00;98990.28;5173759;27;20046;-52
2022/08/01 00:55:07;;;;;;;5.78;2.85;;;;;;;18.05;100.00;99005.06;5173377;27;20183;-52
2022/08/01 00:57:34;;;;;;;3.92;3.05;;;;;;;18.05;100.00;99002.28;5173394;27;20103;-50
2022/08/01 01:00:00;;;;;;;4.80;2.90;;;;;;;18.05;100.00;99007.06;5173416;27;20053;-51
2022/08/01 01:02:26;;;;;;;3.20;2.88;;;;;;;18.10;100.00;98996.28;5173210;27;20046;-52
2022/08/01 01:04:53;;;;;;;4.32;3.65;;;;;;;18.10;100.00;99007.38;5173183;27;20049;-53
2022/08/01 01:07:27;;;;;;;5.90;2.80;;;;;;;17.97;100.00;99002.84;5173313;27;20421;-49
2022/08/01 01:10:00;;;;;;;4.78;2.67;;;;;;;17.96;100.00;99013.16;5173445;27;20532;-50
2022/08/01 01:12:31;;;;;;;4.13;3.10;;;;;;;18.14;100.00;99018.41;5173003;27;20499;-52
2022/08/01 01:15:04;;;;;;;4.72;2.95;;;;;;;18.02;100.00;99010.66;5173441;27;20046;-49
2022/08/01 01:17:37;;;;;;;7.30;2.90;;;;;;;18.00;100.00;99019.41;5173267;27;20104;-52
2022/08/01 01:20:08;;;;;;;5.05;3.47;;;;;;;17.99;100.00;99026.16;5173414;27;20366;-50
2022/08/01 01:22:47;;;;;;;5.18;2.90;;;;;;;18.07;100.00;99033.19;5172864;27;20076;-51
2022/08/01 01:25:41;;;;;;;4.25;2.92;;;;;;;18.06;100.00;99039.13;5172960;27;20137;-53
2022/08/01 01:28:15;;;;;;;5.50;2.58;;;;;;;18.01;100.00;99025.75;5170116;27;20599;-49
2022/08/01 01:30:43;;;;;;;;;;;;;;;18.12;100.00;99031.91;5173269;27;20066;-51
2022/08/01 01:33:11;;;;;;;5.25;2.85;;;;;;;17.96;100.00;99027.00;5172983;27;19929;-53
2022/08/01 01:35:45;;;;;;;9.40;2.78;;;;;;;18.11;100.00;99041.44;5172831;27;20054;-50
2022/08/01 01:38:17;;;;;;;3.65;2.75;;;;;;;18.14;100.00;99037.84;5173143;27;20054;-52
2022/08/01 01:40:44;;;;;;;8.20;3.22;;;;;;;18.21;100.00;99051.59;5172884;27;20053;-52
2022/08/01 01:43:12;;;;;;;7.97;3.72;;;;;;;18.03;100.00;99054.66;5172925;27;20140;-52
2022/08/01 01:45:40;;;;;;;2.75;2.50;;;;;;;17.96;100.00;99040.88;5172940;27;20094;-51
2022/08/01 01:48:09;;;;;;;7.05;2.80;;;;;;;17.88;100.00;99059.59;5172432;27;20050;-51
2022/08/01 01:50:36;;;;;;;7.18;2.80;;;;;;;18.07;100.00;99040.72;5172630;27;20042;-52
2022/08/01 01:53:04;;;;;;;4.90;3.20;;;;;;;18.17;100.00;99059.19;5172491;27;20046;-50
2022/08/01 01:55:31;;;;;;;4.72;2.95;;;;;;;18.16;100.00;99059.59;5172381;27;20052;-51
2022/08/01 01:58:00;;;;;;;5.15;2.47;;;;;;;18.18;100.00;99062.75;5172606;27;20057;-52
2022/08/01 02:00:29;;;;;;;4.15;3.40;;;;;;;18.01;100.00;99067.34;5172280;27;20137;-52
2022/08/01 02:02:57;;;;;;;3.42;2.67;;;;;;;18.16;100.00;99068.72;5172066;27;20094;-53
2022/08/01 02:05:26;;;;;;;4.05;2.55;;;;;;;18.05;100.00;99062.53;5172607;27;20049;-52
2022/08/01 02:07:55;;;;;;;6.78;3.10;;;;;;;18.07;100.00;99072.00;5172207;27;20083;-50
2022/08/01 02:10:22;;;;;;;4.20;2.55;;;;;;;18.00;100.00;99063.78;5172336;27;20060;-52
2022/08/01 02:12:50;;;;;;;5.13;2.78;;;;;;;18.05;100.00;99076.41;5172499;27;20050;-50
2022/08/01 02:15:19;;;;;;;9.60;3.65;;;;;;;18.07;100.00;99083.13;5172125;27;20048;-53
2022/08/01 02:17:49;;;;;;;3.10;2.80;;;;;;;18.25;100.00;99068.19;5172583;27;20408;-52
2022/08/01 02:20:16;;;;;;;6.68;3.50;;;;;;;18.20;100.00;99077.78;5172256;27;20447;-53
2022/08/01 02:22:49;;;;;;;4.07;3.38;;;;;;;18.13;100.00;99066.78;5172498;27;20114;-52
2022/08/01 02:25:20;;;;;;;;;;;;;;;18.01;100.00;99092.31;5172482;27;20106;-52
2022/08/01 02:27:52;;;;;;;4.78;3.83;;;;;;;17.94;100.00;99075.78;5172118;27;19986;-52
2022/08/01 02:30:19;;;;;;;4.18;2.92;;;;;;;17.99;100.00;99083.63;5172014;27;20715;-49
2022/08/01 02:32:50;;;;;;;3.78;2.70;;;;;;;18.04;100.00;99080.38;5172266;27;20053;-50
2022/08/01 02:35:22;;;;;;;5.22;2.67;;;;;;;18.16;100.00;99082.59;5172123;27;20055;-50
2022/08/01 02:37:49;;;;;;;5.45;3.03;;;;;;;18.06;100.00;99089.06;5172053;27;20050;-52
2022/08/01 02:40:18;;;;;;;5.57;2.83;;;;;;;17.90;100.00;99075.81;5174938;27;20542;-52
2022/08/01 02:42:47;;;;;;;5.65;3.20;;;;;;;17.98;100.00;99080.06;5175330;27;20540;-53
2022/08/01 02:45:17;;;;;;;6.38;3.20;;;;;;;18.04;100.00;99085.94;5175459;27;20046;-53
2022/08/01 02:47:46;;;;;;;3.65;2.67;;;;;;;17.91;100.00;99082.16;5175343;27;20050;-52
2022/08/01 02:50:14;;;;;;;5.22;3.28;;;;;;;17.64;100.00;99082.84;5175372;27;20050;-51
2022/08/01 02:52:43;;;;;;;4.13;3.30;;;;;;;17.77;100.00;99064.50;5175373;27;20134;-49
2022/08/01 02:55:12;;;;;;;5.90;2.42;;;;;;;17.94;100.00;99070.22;5175114;27;20480;-51
2022/08/01 02:57:41;;;;;;;6.53;2.85;;;;;;;17.97;100.00;99078.50;5175248;27;20507;-49
2022/08/01 03:00:09;;;;;;;6.10;3.30;;;;;;;17.80;100.00;99073.97;5175374;27;20412;-53
2022/08/01 03:02:37;;;;;;;8.07;3.50;;;;;;;18.02;100.00;99064.16;5175475;27;20386;-49
2022/08/01 03:05:05;;;;;;;3.95;3.00;;;;;;;17.88;100.00;99083.75;5175348;27;20524;-51
2022/08/01 03:07:32;;;;;;;6.13;2.95;;;;;;;18.06;100.00;99075.19;5175484;27;20061;-51
2022/08/01 03:10:00;;;;;;;3.38;3.08;;;;;;;17.96;100.00;99078.91;5175196;27;20050;-51
2022/08/01 03:12:33;;;;;;;6.05;2.70;;;;;;;18.01;100.00;99084.78;5175174;27;20509;-50
2022/08/01 03:15:01;;;;;;;3.60;2.60;;;;;;;18.02;100.00;99088.31;5174951;27;20508;-52
2022/08/01 03:17:29;;;;;;;5.18;3.03;;;;;;;17.88;100.00;99092.09;5175176;27;20052;-49
2022/08/01 03:19:58;;;;;;;2.75;2.47;;;;;;;17.76;100.00;99089.81;5174792;27;20064;-52
2022/08/01 03:22:26;;;;;;;3.13;2.30;;;;;;;18.03;100.00;99095.47;5174695;27;20544;-49
2022/08/01 03:24:54;;;;;;;5.97;3.00;;;;;;;18.08;100.00;99089.44;5175014;27;20098;-50
2022/08/01 03:27:22;;;;;;;9.40;2.70;;;;;;;17.97;100.00;99097.91;5174705;27;20565;-50
2022/08/01 03:29:51;;;;;;;3.00;2.80;;;;;;;18.03;100.00;99096.25;5175001;27;20054;-53
2022/08/01 03:32:18;;;;;;;7.75;2.80;;;;;;;18.10;100.00;99089.81;5174640;27;20050;-49
2022/08/01 03:34:45;;;;;;;4.82;3.13;;;;;;;18.35;100.00;99101.34;5174762;27;20136;-52
2022/08/01 03:37:17;;;;;;;9.07;2.45;;;;;;;18.21;100.00;99106.31;5174696;27;20053;-51
2022/08/01 03:39:49;;;;;;;8.13;3.50;;;;;;;18.31;100.00;99105.38;5174929;27;20490;-51
2022/08/01 03:42:20;;;;;;;3.72;2.97;;;;;;;18.35;100.00;99106.09;5174536;27;20050;-49
2022/08/01 03:44:53;;;;;;;3.95;3.08;;;;;;;18.39;100.00;99111.59;5174400;27;20114;-49
2022/08/01 03:47:22;;;;;;;3.95;2.85;;;;;;;18.50;100.00;99107.47;5174519;27;20046;-50
2022/08/01 03:49:52;;;;;;;3.92;3.00;;;;;;;18.44;100.00;99106.38;5174241;27;20060;-48
2022/08/01 03:52:20;;;;;;;4.10;2.80;;;;;;;18.41;100.00;99106.41;5174757;27;20054;-49
2022/08/01 03:54:48;;;;;;;4.55;2.67;;;;;;;18.66;100.00;99097.69;5174592;27;20366;-49
2022/08/01 03:57:15;;;;;;;3.17;2.40;;;;;;;18.42;100.00;99100.44;5174417;27;20132;-51
2022/08/01 03:59:43;;;;;;;5.30;2.63;;;;;;;18.83;100.00;99096.69;5174250;27;20564;-52
2022/08/01 04:02:13;;;;;;;4.25;2.60;;;;;;;18.91;100.00;99089.00;5174581;27;20118;-52
2022/08/01 04:04:40;;;;;;;2.90;2.60;;;;;;;18.59;100.00;99095.81;5174191;27;20501;-51
2022/08/01 04:07:21;;;;;;;4.65;3.00;;;;;;;18.87;100.00;99079.94;5174409;27;20420;-53
2022/08/01 04:09:48;;;;;;;5.68;2.42;;;;;;;18.76;100.00;99072.59;5174459;27;20050;-49
2022/08/01 04:12:14;;;;;;;6.88;2.65;;;;;;;18.88;100.00;99081.50;5173998;27;20053;-49
2022/08/01 04:14:40;;;;;;;5.28;3.00;;;;;;;18.81;100.00;99087.97;5174032;27;20572;-49
2022/08/01 04:17:06;;;;;;;4.97;2.35;;;;;;;19.16;100.00;99057.97;5174109;27;20054;-49
2022/08/01 04:19:33;;;;;;;2.53;2.17;;;;;;;19.11;100.00;99034.25;5173738;27;20102;-50
2022/08/01 04:22:00;;;;;;;3.67;2.33;;;;;;;18.99;100.00;98990.41;5173807;27;20515;-50
2022/08/01 04:24:29;;;;;;;5.30;2.55;;;;;;;19.39;100.00;98994.03;5174145;27;20145;-51
2022/08/01 04:26:58;;;;;;;8.40;2.80;;;;;;;19.25;100.00;98989.50;5173812;27;20047;-51
2022/08/01 04:29:25;;;;;;;6.65;2.67;;;;;;;18.92;100.00;99021.91;5174192;27;20050;-52
2022/08/01 04:31:54;;;;;;;3.22;2.65;;;;;;;18.93;100.00;99029.03;5173896;27;20056;-52
2022/08/01 04:34:24;;;;;;;3.50;2.53;;;;;;;19.13;100.00;99031.84;5173604;27;20054;-54
2022/08/01 04:36:54;;;;;;;4.07;2.47;;;;;;;19.32;100.00;99007.25;5173793;27;20149;-54
2022/08/01 04:39:21;;;;;;;5.20;2.65;;;;;;;19.05;100.00;98999.84;5173527;27;20054;-52
2022/08/01 04:41:49;;;;;;;7.32;3.00;;;;;;;19.22;100.00;98995.91;5173603;27;20098;-49
2022/08/01 04:44:16;;;;;;;6.72;2.70;;;;;;;19.26;100.00;98988.31;5173477;27;20133;-52
2022/08/01 04:46:43;;;;;;;4.53;2.70;;;;;;;19.34;100.00;98983.38;5173522;27;20465;-52
2022/08/01 04:49:11;;;;;;;9.57;4.20;;;;;;;19.54;100.00;98952.78;5173318;27;20061;-49
2022/08/01 04:51:49;;;;;;;5.00;2.63;;;;;;;19.39;100.00;98940.41;5173755;27;20133;-50
2022/08/01 04:54:16;;;;;;;3.70;3.30;;;;;;;19.70;100.00;98941.72;5173478;27;20046;-51
2022/08/01 04:56:42;;;;;;;5.05;2.58;;;;;;;19.84;100.00;98910.00;5173751;27;20467;-53
2022/08/01 05:01:53;;;;;;;3.90;2.70;;;;;;;20.86;100.00;98751.78;5172563;27;20420;-51
2022/08/01 05:04:19;;;;;;;4.22;2.55;;;;;;;21.84;100.00;98524.25;5173292;27;20511;-53
2022/08/01 05:06:45;;;;;;;4.88;3.67;;;;;;;21.99;100.00;98276.09;5172930;27;20046;-49
2022/08/01 05:09:11;;;;;;;3.50;2.75;;;;;;;22.61;100.00;98146.53;5172603;27;20521;-53
2022/08/01 05:11:38;;;;;;;3.67;2.80;;;;;;;22.17;100.00;98136.56;5172990;27;20421;-49
2022/08/01 05:14:06;;;;;;;3.45;2.80;;;;;;;21.94;100.00;98098.13;5173002;27;20077;-53
2022/08/01 05:16:32;;;;;;;7.65;4.10;;;;;;;23.34;100.00;98045.50;5172873;27;20105;-53
2022/08/01 05:18:58;;;;;;;3.63;3.13;;;;;;;22.15;100.00;98076.84;5173288;27;20137;-51
2022/08/01 05:21:25;;;;;;;6.38;3.38;;;;;;;22.20;100.00;98059.50;5172746;27;20046;-52
2022/08/01 05:23:51;;;;;;;5.03;3.08;;;;;;;22.43;100.00;98145.34;5172884;27;20140;-53
2022/08/01 05:26:17;;;;;;;11.15;3.33;;;;;;;21.92;100.00;98165.53;5172816;27;20493;-52
2022/08/01 05:28:44;;;;;;;5.00;3.78;;;;;;;22.00;100.00;98244.94;5172639;27;20057;-52
2022/08/01 05:31:11;;;;;;;9.85;3.45;;;;;;;22.66;100.00;98210.13;5172817;27;20386;-52
2022/08/01 05:33:37;;;;;;;8.55;2.83;;;;;;;21.38;100.00;98250.72;5172384;27;20118;-52
2022/08/01 05:36:04;;;;;;;5.13;3.22;;;;;;;22.01;100.00;98223.38;5172561;27;20130;-53
2022/08/01 05:38:30;;;;;;;6.18;2.80;;;;;;;22.75;100.00;98117.91;5172638;27;20420;-51
2022/08/01 05:40:56;;;;;;;9.15;3.95;;;;;;;22.00;100.00;98020.91;5172359;27;20042;-52
2022/08/01 05:43:22;;;;;;;6.75;3.70;;;;;;;22.22;100.00;98098.84;5172609;27;20137;-51
2022/08/01 05:45:50;;;;;;;5.72;3.30;;;;;;;22.00;100.00;98141.69;5172311;27;20050;-50
2022/08/01 05:48:17;;;;;;;8.05;3.72;;;;;;;22.87;100.00;98144.88;5172115;27;20053;-53
2022/08/01 05:50:43;;;;;;;8.73;4.45;;;;;;;22.80;100.00;97980.34;5172739;27;20054;-51
2022/08/01 05:53:09;;;;;;;7.18;4.50;;;;;;;22.97;100.00;97989.13;5172495;27;20072;-49
2022/08/01 05:55:36;;;;;;;9.38;4.05;;;;;;;22.43;100.00;98024.50;5172337;27;20105;-52
2022/08/01 05:58:02;;;;;;;8.65;4.20;;;;;;;22.41;100.00;98082.81;5172368;27;20458;-50
2022/08/01 06:00:29;;;;;;;4.88;3.35;;;;;;;22.89;100.00;98145.16;5172311;27;20128;-51
2022/08/01 06:02:55;;;;;;;7.85;5.13;;;;;;;23.89;100.00;97801.53;5172225;27;20377;-52
2022/08/01 06:05:22;;;;;;;5.20;3.58;;;;;;;24.68;100.00;97706.44;5172209;27;20042;-52
2022/08/01 06:07:48;;;;;;;5.72;3.83;;;;;;;25.00;100.00;97612.69;5172202;27;20053;-51
2022/08/01 06:10:15;;;;;;;5.35;3.70;;;;;;;24.93;100.00;97641.19;5172010;27;20058;-50
2022/08/01 06:12:41;;;;;;;6.10;4.47;;;;;;;25.09;100.00;97611.69;5172135;27;20050;-53
2022/08/01 06:15:08;;;;;;;8.52;4.05;;;;;;;24.92;100.00;97639.63;5174824;27;20046;-53
2022/08/01 06:17:34;;;;;;;6.07;4.25;;;;;;;24.83;100.00;97618.19;5176203;27;20479;-50
2022/08/01 06:20:01;;;;;;;5.43;3.85;;;;;;;24.93;100.00;97637.59;5175935;27;20058;-52
2022/08/01 06:22:28;;;;;;;7.22;4.07;;;;;;;24.80;100.00;97644.41;5175953;27;20176;-54
2022/08/01 06:24:54;;;;;;;7.53;4.03;;;;;;;25.01;100.00;97621.84;5176075;27;20061;-52
2022/08/01 06:27:20;;;;;;;6.28;4.40;;;;;;;24.94;100.00;97679.16;5175739;27;20101;-53
2022/08/01 06:29:47;;;;;;;6.57;3.88;;;;;;;25.20;100.00;97655.91;5175639;27;20123;-54
2022/08/01 06:32:13;;;;;;;6.78;4.00;;;;;;;24.88;100.00;97695.16;5175490;27;20046;-51
2022/08/01 06:34:39;;;;;;;9.98;4.07;;;;;;;26.85;100.00;97586.34;5175613;27;20042;-52
2022/08/01 06:37:06;;;;;;;7.25;4.32;;;;;;;27.73;100.00;97606.28;5175450;27;20089;-51
2022/08/01 06:39:32;;;;;;;6.03;3.83;;;;;;;28.26;100.00;97635.19;5175255;27;20144;-50
2022/08/01 06:41:59;;;;;;;6.78;3.92;;;;;;;29.04;100.00;97647.94;5175309;27;20047;-53
2022/08/01 06:44:25;;;;;;;6.63;3.67;;;;;;;30.01;100.00;97705.63;5175537;27;20042;-52
2022/08/01 06:46:51;;;;;;;6.05;3.78;;;;;;;30.12;100.00;97778.19;5175218;27;20083;-54
2022/08/01 06:49:17;;;;;;;7.07;4.28;;;;;;;29.90;100.00;97830.09;5175413;27;20042;-54
2022/08/01 06:51:44;;;;;;;7.05;4.20;;;;;;;28.83;100.00;97754.75;5175184;27;20057;-54
2022/08/01 06:54:11;;;;;;;5.93;4.38;;;;;;;28.97;100.00;97730.28;5175433;27;20129;-55
2022/08/01 06:56:37;;;;;;;6.72;3.97;;;;;;;28.59;100.00;97672.88;5175079;27;20046;-55
2022/08/01 06:59:03;;;;;;;5.25;4.00;;;;;;;30.14;100.00;97710.63;5174983;27;20504;-54
2022/08/01 07:01:30;;;;;;;7.25;4.53;;;;;;;30.47;100.00;97791.41;5175055;27;20053;-54
2022/08/01 07:03:56;;;;;;;6.30;3.65;;;;;;;30.85;100.00;97788.56;5175059;27;20057;-53
2022/08/01 07:06:24;;;;;;;7.30;3.78;;;;;;;30.06;100.00;97813.47;5175078;27;20046;-54
2022/08/01 07:08:50;;;;;;;8.48;3.47;;;;;;;30.91;100.00;97836.59;5174915;27;20141;-53
2022/08/01 07:11:18;;;;;;;4.75;4.28;;;;;;;29.24;100.00;97793.44;5175231;27;20046;-53
2022/08/01 07:13:45;;;;;;;10.02;4.03;;;;;;;29.22;100.00;97770.63;5174802;27;20501;-53
2022/08/01 07:16:11;;;;;;;4.63;3.85;;;;;;;30.43;100.00;97750.59;5175121;27;20086;-51
2022/08/01 07:18:38;;;;;;;6.20;3.90;;;;;;;29.44;100.00;97746.31;5174872;27;20060;-54
2022/08/01 07:21:04;;;;;;;7.55;3.92;;;;;;;29.30;100.00;97729.25;5174796;27;20497;-52
2022/08/01 07:23:30;;;;;;;4.10;3.70;;;;;;;29.85;100.00;97712.25;5174822;27;20584;-52
2022/08/01 07:25:56;;;;;;;10.07;4.53;;;;;;;30.45;100.00;97762.88;5174161;27;20050;-54
2022/08/01 07:28:23;;;;;;;15.00;3.92;;;;;;;30.16;100.00;97746.84;5174580;27;20052;-54
2022/08/01 07:30:49;;;;;;;9.98;4.40;;;;;;;30.33;100.00;97781.31;5174736;27;20042;-53
2022/08/01 07:33:16;;;;;;;5.28;3.67;;;;;;;30.94;100.00;97784.59;5174538;27;20057;-51
2022/08/01 07:35:42;;;;;;;5.65;3.85;;;;;;;29.93;100.00;97788.72;5174579;27;20050;-52
2022/08/01 07:38:08;;;;;;;9.75;5.30;;;;;;;29.61;100.00;97751.81;5174393;27;20140;-50
2022/08/01 07:40:34;;;;;;;4.95;3.78;;;;;;;29.97;100.00;97773.00;5174337;27;20129;-51
2022/08/01 07:43:01;;;;;;;8.68;4.38;;;;;;;29.65;100.00;97783.34;5174719;27;20132;-56
2022/08/01 07:45:28;;;;;;;7.78;4.00;;;;;;;28.86;100.00;97738.84;5174130;27;20056;-54
2022/08/01 07:47:54;;;;;;;5.97;3.92;;;;;;;29.34;100.00;97737.44;5174254;27;20050;-53
2022/08/01 07:50:20;;;;;;;5.57;3.70;;;;;;;28.46;100.00;97712.97;5174300;27;20054;-54
2022/08/01 07:52:46;;;;;;;11.10;4.00;;;;;;;29.19;100.00;97691.91;5174369;27;20057;-54
2022/08/01 07:55:13;;;;;;;12.80;4.20;;;;;;;30.75;100.00;97781.75;5174398;27;20050;-54
2022/08/01 07:57:39;;;;;;;4.78;4.05;;;;;;;30.95;100.00;97795.38;5174474;27;20049;-54
2022/08/01 08:00:08;;;;;;;12.52;3.97;;;;;;;29.33;100.00;97733.09;5174278;27;20070;-51
2022/08/01 08:02:35;;;;;;;8.02;4.13;;;;;;;29.91;100.00;97746.84;5174275;27;20113;-53
2022/08/01 08:05:03;;;;;;;9.77;4.40;;;;;;;29.41;100.00;97745.31;5174241;27;20050;-55
2022/08/01 08:07:30;;;;;;;5.75;3.45;;;;;;;29.19;100.00;97745.50;5174074;27;20046;-53
2022/08/01 08:09:56;;;;;;;6.10;3.35;;;;;;;29.80;100.00;97735.69;5174242;27;20500;-54
2022/08/01 08:12:22;;;;;;;7.22;3.92;;;;;;;30.64;100.00;97794.00;5174204;27;20042;-54
2022/08/01 08:14:48;;;;;;;8.13;4.00;;;;;;;29.05;100.00;97781.28;5174256;27;20043;-53
2022/08/01 08:17:15;;;;;;;6.15;3.00;;;;;;;28.54;100.00;97752.66;5174016;27;20054;-54
2022/08/01 08:19:42;;;;;;;8.55;3.17;;;;;;;29.34;100.00;97764.91;5173841;27;20094;-54
2022/08/01 08:22:09;;;;;;;7.10;3.67;;;;;;;28.92;100.00;97733.91;5173751;27;20137;-54
2022/08/01 08:24:36;;;;;;;13.18;3.72;;;;;;;29.86;100.00;97730.00;5173726;27;20576;-52
2022/08/01 08:27:02;;;;;;;7.05;3.30;;;;;;;29.27;100.00;97744.41;5173686;27;20047;-53
2022/08/01 08:29:32;;;;;;;7.70;3.25;;;;;;;29.53;100.00;97769.31;5173555;27;20054;-54
2022/08/01 08:31:58;;;;;;;5.28;3.30;;;;;;;30.19;100.00;97771.19;5173700;27;20087;-54
2022/08/01 08:34:26;;;;;;;4.50;3.90;;;;;;;30.35;100.00;97752.50;5173537;27;20050;-54
2022/08/01 08:36:54;;;;;;;8.25;3.28;;;;;;;30.75;100.00;97885.66;5172929;27;20145;-53
2022/08/01 08:39:21;;;;;;;6.93;3.00;;;;;;;30.47;100.00;97845.13;5173472;27;20054;-53
2022/08/01 08:41:47;;;;;;;6.15;2.95;;;;;;;30.82;100.00;97899.22;5173949;27;20073;-53
2022/08/01 08:44:14;;;;;;;7.95;2.88;;;;;;;30.99;100.00;97896.16;5173446;27;20066;-53
2022/08/01 08:46:43;;;;;;;6.63;2.90;;;;;;;31.65;100.00;97950.31;5173248;27;20054;-52
2022/08/01 08:49:11;;;;;;;11.80;2.90;;;;;;;32.53;100.00;97948.59;5173079;27;20050;-54
2022/08/01 08:51:39;;;;;;;7.47;3.05;;;;;;;32.39;100.00;97947.78;5173201;27;20042;-53
2022/08/01 08:54:07;;;;;;;4.82;2.78;;;;;;;31.61;100.00;97972.53;5173227;27;20077;-54
2022/08/01 08:56:35;;;;;;;3.53;2.30;;;;;;;31.60;100.00;97926.44;5172793;27;20370;-53
2022/08/01 08:59:02;;;;;;;5.75;2.30;;;;;;;31.57;100.00;98009.66;5173105;27;20057;-54
2022/08/01 09:01:32;;;;;;;6.28;2.60;;;;;;;30.57;100.00;97967.13;5172793;27;20074;-52
2022/08/01 09:03:58;;;;;;;11.32;2.70;;;;;;;32.06;100.00;97946.34;5173498;27;20046;-52
2022/08/01 09:06:25;;;;;;;6.85;2.40;;;;;;;32.05;100.00;97970.28;5173056;27;20053;-53
2022/08/01 09:08:51;;;;;;;5.15;2.53;;;;;;;30.47;100.00;97960.31;5172832;27;20057;-54
2022/08/01 09:11:18;;;;;;;6.28;2.10;;;;;;;30.48;100.00;97945.63;5172953;27;20050;-51
2022/08/01 09:14:02;;;;;;;6.50;2.00;;;;;;;30.55;100.00;97975.38;5172923;27;20050;-53
2022/08/01 09:16:29;;;;;;;6.28;2.33;;;;;;;31.48;100.00;97976.06;5172997;27;20148;-53
2022/08/01 09:19:07;;;;;;;6.05;2.35;;;;;;;31.04;100.00;97977.41;5172823;27;20053;-54
2022/08/01 09:21:33;;;;;;;6.30;2.17;;;;;;;31.25;100.00;97972.75;5172999;27;20417;-53
2022/08/01 09:24:02;;;;;;;2.85;2.15;;;;;;;32.50;100.00;97941.16;5173014;27;20141;-55
2022/08/01 09:26:31;;;;;;;7.20;2.65;;;;;;;31.94;100.00;98035.69;5172783;27;20042;-53
2022/08/01 09:28:59;;;;;;;8.25;2.25;;;;;;;31.33;100.00;98019.00;5172505;27;20516;-54
2022/08/01 09:31:27;;;;;;;4.22;2.20;;;;;;;31.03;100.00;98009.84;5173022;27;20050;-53
2022/08/01 09:33:55;;;;;;;6.10;2.20;;;;;;;31.48;100.00;97980.97;5172832;27;20060;-52
2022/08/01 09:36:22;;;;;;;5.90;2.42;;;;;;;32.22;100.00;98001.19;5173018;27;20077;-53
2022/08/01 09:38:49;;;;;;;8.00;2.50;;;;;;;32.53;100.00;98017.44;5172832;27;20566;-53
2022/08/01 09:41:16;;;;;;;10.30;2.20;;;;;;;30.86;100.00;98019.31;5172858;27;20046;-51
2022/08/01 09:43:49;;;;;;;5.10;1.88;;;;;;;31.25;100.00;98008.78;5172809;27;20543;-54
2022/08/01 09:46:15;;;;;;;;;;;;;;;31.61;100.00;97964.78;5172995;27;20046;-53
2022/08/01 09:48:56;;;;;;;4.78;2.10;;;;;;;32.21;100.00;97965.66;5172291;27;20023;-54
2022/08/01 09:51:29;;;;;;;5.18;2.00;;;;;;;32.90;100.00;97964.59;5172342;27;20082;-53
2022/08/01 09:53:55;;;;;;;3.92;1.95;;;;;;;32.43;100.00;98019.16;5172384;27;20132;-49
2022/08/01 09:56:23;;;;;;;5.88;2.13;;;;;;;31.76;100.00;98032.31;5172112;27;20137;-52
2022/08/01 09:58:54;;;;;;;8.25;2.00;;;;;;;30.41;100.00;97999.94;5172155;27;20511;-52
2022/08/01 10:01:22;;;;;;;5.30;2.00;;;;;;;30.66;100.00;97983.00;5172510;27;20083;-51
2022/08/01 10:04:05;;;;;;;5.88;2.22;;;;;;;31.50;100.00;97970.63;5172221;27;20054;-52
2022/08/01 10:06:31;;;;;;;4.45;2.00;;;;;;;32.44;100.00;98002.91;5172441;27;20050;-52
2022/08/01 10:08:58;;;;;;;3.53;2.10;;;;;;;32.33;100.00;98040.72;5172015;27;20056;-51
2022/08/01 10:11:24;;;;;;;2.97;1.50;;;;;;;31.39;100.00;97997.06;5172366;27;20485;-52
2022/08/01 10:13:51;;;;;;;6.72;2.20;;;;;;;31.88;100.00;98008.19;5172040;27;20491;-53
2022/08/01 10:16:18;;;;;;;4.07;2.13;;;;;;;31.22;100.00;97979.47;5172237;27;20110;-52
2022/08/01 10:18:46;;;;;;;3.97;2.00;;;;;;;31.47;100.00;97985.09;5172014;27;20140;-55
2022/08/01 10:21:13;;;;;;;8.82;2.08;;;;;;;31.65;100.00;97992.81;5171757;27;20060;-53
2022/08/01 10:23:41;;;;;;;5.57;2.03;;;;;;;30.80;100.00;97947.88;5171718;27;20109;-52
2022/08/01 10:26:10;;;;;;;3.58;1.92;;;;;;;31.66;100.00;97980.19;5172164;27;20042;-52
2022/08/01 10:28:38;;;;;;;2.95;1.77;;;;;;;30.70;100.00;97963.66;5171927;27;20119;-51
2022/08/01 10:31:06;;;;;;;3.70;2.20;;;;;;;30.68;100.00;97906.84;5172051;27;20047;-52
2022/08/01 10:33:35;;;;;;;6.60;2.20;;;;;;;31.44;100.00;97910.47;5171831;27;20054;-54
2022/08/01 10:36:02;;;;;;;3.83;2.30;;;;;;;30.85;100.00;97907.41;5171694;27;20057;-54
2022/08/01 10:38:29;;;;;;;4.05;2.15;;;;;;;30.83;100.00;97912.09;5171969;27;20050;-53
2022/08/01 10:40:57;;;;;;;2.80;2.20;;;;;;;31.18;100.00;97933.72;5171543;27;20572;-52
2022/08/01 10:43:23;;;;;;;6.85;2.00;;;;;;;30.35;100.00;97945.50;5171456;27;20071;-52
2022/08/01 10:45:50;;;;;;;4.70;2.08;;;;;;;30.44;100.00;97956.47;5171632;27;20105;-53
2022/08/01 10:48:22;;;;;;;3.97;1.70;;;;;;;30.77;100.00;97946.09;5171503;27;20054;-53
2022/08/01 10:50:53;;;;;;;6.53;1.90;;;;;;;30.87;100.00;97918.22;5171700;27;20184;-51
2022/08/01 10:53:21;;;;;;;6.68;2.22;;;;;;;30.42;100.00;97955.47;5171405;27;20042;-52
2022/08/01 10:55:50;;;;;;;2.08;1.95;;;;;;;30.49;100.00;97929.44;5171312;27;20042;-51
2022/08/01 10:58:25;;;;;;;7.47;2.00;;;;;;;30.88;100.00;97923.31;5171664;27;20429;-54
2022/08/01 11:01:19;;;;;;;7.15;2.05;;;;;;;30.30;100.00;97917.31;5173786;27;20137;-54
2022/08/01 11:04:02;;;;;;;6.80;2.72;;;;;;;31.01;100.00;97891.50;5174980;27;20050;-51
2022/08/01 11:06:46;;;;;;;7.70;2.77;;;;;;;30.76;100.00;97867.38;5175077;27;20046;-53
2022/08/01 11:09:24;;;;;;;4.28;2.20;;;;;;;29.35;100.00;97829.28;5174993;27;20050;-52
2022/08/01 11:12:06;;;;;;;8.50;3.13;;;;;;;30.35;100.00;97775.88;5174922;27;20553;-52
2022/08/01 11:14:34;;;;;;;4.82;2.17;;;;;;;29.15;100.00;97869.97;5174974;27;20050;-51
2022/08/01 11:17:31;;;;;;;7.85;2.17;;;;;;;29.65;100.00;97826.47;5174769;27;20050;-52
2022/08/01 11:20:05;;;;;;;2.63;1.75;;;;;;;28.75;100.00;97810.19;5174835;27;20058;-53
2022/08/01 11:22:32;;;;;;;7.38;2.25;;;;;;;29.71;100.00;97778.41;5174511;27;20711;-52
2022/08/01 11:24:59;;;;;;;6.78;2.00;;;;;;;29.70;100.00;97884.97;5174755;27;20058;-53
2022/08/01 11:27:28;;;;;;;5.75;2.42;;;;;;;29.11;100.00;97889.22;5174691;27;20098;-52
2022/08/01 11:30:22;;;;;;;6.22;2.20;;;;;;;28.88;100.00;97873.69;5174480;27;20157;-52
2022/08/01 11:32:49;;;;;;;7.53;2.15;;;;;;;29.11;100.00;97818.69;5174443;27;20053;-51
2022/08/01 11:35:17;;;;;;;4.78;2.30;;;;;;;28.76;100.00;97777.13;5174653;27;20054;-53